createdAt,value
2023-02-26T00:00:13.322Z,0.90
2023-02-26T00:03:01.728Z,0.90
2023-02-26T00:05:49.660Z,0.90
2023-02-26T00:08:37.379Z,0.90
2023-02-26T00:11:26.584Z,0.90
2023-02-26T00:14:16.328Z,0.90
2023-02-26T00:17:30.563Z,0.80
2023-02-26T00:20:18.833Z,0.80
2023-02-26T00:23:06.855Z,0.90
2023-02-26T00:25:54.170Z,0.80
2023-02-26T00:28:43.781Z,0.80
2023-02-26T00:31:31.745Z,0.80
2023-02-26T00:34:20.689Z,0.80
2023-02-26T00:37:18.693Z,0.80
2023-02-26T00:40:20.635Z,0.80
2023-02-26T00:43:11.512Z,0.80
2023-02-26T00:46:07.806Z,0.80
2023-02-26T00:49:03.814Z,0.80
2023-02-26T00:51:56.666Z,0.80
2023-02-26T00:54:44.328Z,0.80
2023-02-26T00:57:35.654Z,0.80
2023-02-26T01:00:23.645Z,0.80
2023-02-26T01:03:13.030Z,0.80
2023-02-26T01:06:01.082Z,0.80
2023-02-26T01:08:55.815Z,0.80
2023-02-26T01:11:44.427Z,0.80
2023-02-26T01:14:33.498Z,0.70
2023-02-26T01:17:26.564Z,0.70
2023-02-26T01:20:20.524Z,0.60
2023-02-26T01:23:10.794Z,0.60
2023-02-26T01:26:01.789Z,0.60
2023-02-26T01:28:49.652Z,0.60
2023-02-26T01:31:44.479Z,0.60
2023-02-26T01:34:36.398Z,0.60
2023-02-26T01:37:32.675Z,0.60
2023-02-26T01:40:49.360Z,0.60
2023-02-26T01:43:40.832Z,0.60
2023-02-26T01:46:34.860Z,0.60
2023-02-26T01:49:23.237Z,0.60
2023-02-26T01:52:57.654Z,0.60
2023-02-26T01:55:50.596Z,0.60
2023-02-26T01:58:39.104Z,0.60
2023-02-26T02:01:26.982Z,0.60
2023-02-26T02:04:16.987Z,0.60
2023-02-26T02:07:05.941Z,0.60
2023-02-26T02:09:53.974Z,0.60
2023-02-26T02:12:51.842Z,0.60
2023-02-26T02:15:46.682Z,0.60
2023-02-26T02:18:41.237Z,0.60
2023-02-26T02:21:51.747Z,0.60
2023-02-26T02:24:53.410Z,0.60
2023-02-26T02:27:50.126Z,0.60
2023-02-26T02:30:53.578Z,0.60
2023-02-26T02:33:48.181Z,0.60
2023-02-26T02:36:40.623Z,0.60
2023-02-26T02:39:32.243Z,0.60
2023-02-26T02:42:25.538Z,0.60
2023-02-26T02:45:20.525Z,0.70
2023-02-26T02:48:15.124Z,0.70
2023-02-26T02:51:05.770Z,0.60
2023-02-26T02:53:56.874Z,0.60
2023-02-26T02:56:48.227Z,0.70
2023-02-26T02:59:42.240Z,0.70
2023-02-26T03:02:35.088Z,0.70
2023-02-26T03:05:24.075Z,0.60
2023-02-26T03:08:18.425Z,0.70
2023-02-26T03:11:07.541Z,0.60
2023-02-26T03:13:55.714Z,0.60
2023-02-26T03:17:13.660Z,0.60
2023-02-26T03:20:14.935Z,0.60
2023-02-26T03:23:10.084Z,0.60
2023-02-26T03:26:02.561Z,0.60
2023-02-26T03:28:56.241Z,0.60
2023-02-26T03:31:48.796Z,0.60
2023-02-26T03:34:42.064Z,0.50
2023-02-26T03:37:34.918Z,0.50
2023-02-26T03:40:30.414Z,0.50
2023-02-26T03:43:23.837Z,0.50
2023-02-26T03:46:16.919Z,0.50
2023-02-26T03:49:10.307Z,0.50
2023-02-26T03:52:02.018Z,0.50
2023-02-26T03:55:09.946Z,0.50
2023-02-26T03:58:18.957Z,0.50
2023-02-26T04:01:34.023Z,0.50
2023-02-26T04:04:26.588Z,0.50
2023-02-26T04:07:16.632Z,0.40
2023-02-26T04:10:05.220Z,0.50
2023-02-26T04:12:52.833Z,0.50
2023-02-26T04:15:41.669Z,0.40
2023-02-26T04:18:29.607Z,0.40
2023-02-26T04:21:20.155Z,0.40
2023-02-26T04:24:08.517Z,0.40
2023-02-26T04:26:56.633Z,0.40
2023-02-26T04:29:44.726Z,0.40
2023-02-26T04:32:33.995Z,0.40
2023-02-26T04:35:21.835Z,0.40
2023-02-26T04:38:09.322Z,0.40
2023-02-26T04:40:56.802Z,0.40
2023-02-26T04:43:45.126Z,0.40
2023-02-26T04:46:42.700Z,0.40
2023-02-26T04:49:31.998Z,0.30
2023-02-26T04:52:19.984Z,0.30
2023-02-26T04:55:09.951Z,0.30
2023-02-26T04:57:59.513Z,0.20
2023-02-26T05:00:50.008Z,0.30
2023-02-26T05:03:37.872Z,0.20
2023-02-26T05:06:27.291Z,0.20
2023-02-26T05:09:15.080Z,0.20
2023-02-26T05:12:02.643Z,0.10
2023-02-26T05:14:50.452Z,0.20
2023-02-26T05:17:37.994Z,0.20
2023-02-26T05:20:25.413Z,0.20
2023-02-26T05:23:14.364Z,0.20
2023-02-26T05:26:02.129Z,0.20
2023-02-26T05:28:49.896Z,0.20
2023-02-26T05:31:37.411Z,0.20
2023-02-26T05:34:24.889Z,0.20
2023-02-26T05:37:12.680Z,0.20
2023-02-26T05:40:01.415Z,0.20
2023-02-26T05:42:49.101Z,0.20
2023-02-26T05:45:36.441Z,0.30
2023-02-26T05:48:25.174Z,0.30
2023-02-26T05:51:12.866Z,0.30
2023-02-26T05:54:00.405Z,0.30
2023-02-26T05:56:49.303Z,0.30
2023-02-26T05:59:38.720Z,0.30
2023-02-26T06:02:26.485Z,0.30
2023-02-26T06:05:13.826Z,0.40
2023-02-26T06:08:01.224Z,0.40
2023-02-26T06:10:48.561Z,0.40
2023-02-26T06:13:37.760Z,0.40
2023-02-26T06:16:26.449Z,0.40
2023-02-26T06:19:14.539Z,0.40
2023-02-26T06:22:02.302Z,0.50
2023-02-26T06:24:50.011Z,0.50
2023-02-26T06:27:37.395Z,0.50
2023-02-26T06:30:26.082Z,0.60
2023-02-26T06:33:14.316Z,0.60
2023-02-26T06:36:02.535Z,0.60
2023-02-26T06:38:50.414Z,0.60
2023-02-26T06:41:38.112Z,0.60
2023-02-26T06:44:25.761Z,0.60
2023-02-26T06:47:14.562Z,0.60
2023-02-26T06:50:04.001Z,0.60
2023-02-26T06:52:54.895Z,0.60
2023-02-26T06:55:45.882Z,0.70
2023-02-26T06:58:33.717Z,0.70
2023-02-26T07:01:21.319Z,0.70
2023-02-26T07:04:10.264Z,0.70
2023-02-26T07:06:57.830Z,0.70
2023-02-26T07:09:46.130Z,0.70
2023-02-26T07:12:33.818Z,0.70
2023-02-26T07:15:21.302Z,0.70
2023-02-26T07:18:08.768Z,0.70
2023-02-26T07:20:57.802Z,0.70
2023-02-26T07:23:45.456Z,0.80
2023-02-26T07:26:32.889Z,0.70
2023-02-26T07:29:20.327Z,0.80
2023-02-26T07:32:07.876Z,0.80
2023-02-26T07:34:55.529Z,0.80
2023-02-26T07:37:44.629Z,0.80
2023-02-26T07:40:32.431Z,0.80
2023-02-26T07:43:19.958Z,0.80
2023-02-26T07:46:07.553Z,0.80
2023-02-26T07:48:55.335Z,0.80
2023-02-26T07:51:45.951Z,0.90
2023-02-26T07:54:35.073Z,0.90
2023-02-26T07:57:23.155Z,0.90
2023-02-26T08:00:13.367Z,0.90
2023-02-26T08:03:00.864Z,0.90
2023-02-26T08:05:48.433Z,0.90
2023-02-26T08:08:36.295Z,0.90
2023-02-26T08:11:25.232Z,0.90
2023-02-26T08:14:12.991Z,1.00
2023-02-26T08:17:00.377Z,1.00
2023-02-26T08:19:47.873Z,1.10
2023-02-26T08:22:35.293Z,1.10
2023-02-26T08:25:23.041Z,1.20
2023-02-26T08:28:11.995Z,1.30
2023-02-26T08:31:00.386Z,1.40
2023-02-26T08:33:48.062Z,1.40
2023-02-26T08:36:35.440Z,1.30
2023-02-26T08:39:23.348Z,1.30
2023-02-26T08:42:12.418Z,1.30
2023-02-26T08:45:01.287Z,1.40
2023-02-26T08:47:56.762Z,1.40
2023-02-26T08:50:44.657Z,1.40
2023-02-26T08:53:32.099Z,1.40
2023-02-26T08:56:19.572Z,1.40
2023-02-26T08:59:07.483Z,1.40
2023-02-26T09:01:56.240Z,1.30
2023-02-26T09:04:43.966Z,1.30
2023-02-26T09:07:31.783Z,1.30
2023-02-26T09:10:19.806Z,1.40
2023-02-26T09:13:07.154Z,1.50
2023-02-26T09:15:54.841Z,1.50
2023-02-26T09:18:46.445Z,1.40
2023-02-26T09:21:35.822Z,1.40
2023-02-26T09:24:23.816Z,1.50
2023-02-26T09:27:11.117Z,1.50
2023-02-26T09:29:58.338Z,1.50
2023-02-26T09:32:45.972Z,1.50
2023-02-26T09:35:35.089Z,1.60
2023-02-26T09:38:22.826Z,1.70
2023-02-26T09:41:17.437Z,1.80
2023-02-26T09:44:20.500Z,1.80
2023-02-26T09:47:15.303Z,1.70
2023-02-26T09:50:09.969Z,1.80
2023-02-26T09:53:04.105Z,1.90
2023-02-26T09:55:56.010Z,2.00
2023-02-26T09:58:44.582Z,1.90
2023-02-26T10:01:43.773Z,1.90
2023-02-26T10:04:48.206Z,1.80
2023-02-26T10:07:43.597Z,1.90
2023-02-26T10:10:39.322Z,2.00
2023-02-26T10:13:49.054Z,2.00
2023-02-26T10:16:50.378Z,2.10
2023-02-26T10:19:44.290Z,2.30
2023-02-26T10:22:36.754Z,2.40
2023-02-26T10:25:30.281Z,2.50
2023-02-26T10:28:35.888Z,2.40
2023-02-26T10:31:31.224Z,2.30
2023-02-26T10:34:24.392Z,2.40
2023-02-26T10:37:19.580Z,2.40
2023-02-26T10:40:16.065Z,2.40
2023-02-26T10:43:11.669Z,2.50
2023-02-26T10:46:20.200Z,2.50
2023-02-26T10:49:39.469Z,2.60
2023-02-26T10:52:29.505Z,2.70
2023-02-26T10:55:40.582Z,2.80
2023-02-26T10:58:28.224Z,2.90
2023-02-26T11:01:19.678Z,3.00
2023-02-26T11:04:10.052Z,3.20
2023-02-26T11:07:00.158Z,3.20
2023-02-26T11:09:47.883Z,3.50
2023-02-26T11:12:35.375Z,3.60
2023-02-26T11:15:26.587Z,3.70
2023-02-26T11:18:18.642Z,3.60
2023-02-26T11:21:08.670Z,3.60
2023-02-26T11:23:59.886Z,3.70
2023-02-26T11:26:50.309Z,4.00
2023-02-26T11:29:41.472Z,4.10
2023-02-26T11:32:32.615Z,4.20
2023-02-26T11:35:26.624Z,4.00
2023-02-26T11:38:20.249Z,3.80
2023-02-26T11:41:08.713Z,3.50
2023-02-26T11:44:02.186Z,3.20
2023-02-26T11:46:53.423Z,3.00
2023-02-26T11:49:45.317Z,2.90
2023-02-26T11:52:37.628Z,2.60
2023-02-26T11:55:30.573Z,2.50
2023-02-26T11:58:22.058Z,2.50
2023-02-26T12:01:13.465Z,2.70
2023-02-26T12:04:03.518Z,2.90
2023-02-26T12:06:52.939Z,3.30
2023-02-26T12:09:41.830Z,3.70
2023-02-26T12:12:43.692Z,4.00
2023-02-26T12:15:37.613Z,4.40
2023-02-26T12:18:33.813Z,4.70
2023-02-26T12:21:49.031Z,4.70
2023-02-26T12:25:06.845Z,4.50
2023-02-26T12:28:22.945Z,4.40
2023-02-26T12:31:30.974Z,4.10
2023-02-26T12:34:38.288Z,3.50
2023-02-26T12:37:39.274Z,3.00
2023-02-26T12:40:45.309Z,2.70
2023-02-26T12:43:40.286Z,2.50
2023-02-26T12:46:37.029Z,2.30
2023-02-26T12:49:49.015Z,2.20
2023-02-26T12:52:58.932Z,2.20
2023-02-26T12:55:59.280Z,2.70
2023-02-26T12:58:58.956Z,3.10
2023-02-26T13:02:14.737Z,3.50
2023-02-26T13:05:24.483Z,4.00
2023-02-26T13:08:22.158Z,4.60
2023-02-26T13:11:19.603Z,5.00
2023-02-26T13:14:22.048Z,5.00
2023-02-26T13:17:14.642Z,4.90
2023-02-26T13:20:05.100Z,5.00
2023-02-26T13:22:56.976Z,5.00
2023-02-26T13:25:52.558Z,4.80
2023-02-26T13:28:48.549Z,4.90
2023-02-26T13:31:41.092Z,4.70
2023-02-26T13:34:43.429Z,4.10
2023-02-26T13:37:33.317Z,3.20
2023-02-26T13:40:42.852Z,2.50
2023-02-26T13:43:42.636Z,2.20
2023-02-26T13:46:51.589Z,2.00
2023-02-26T13:49:49.136Z,1.90
2023-02-26T13:52:38.159Z,2.00
2023-02-26T13:55:45.907Z,2.00
2023-02-26T13:58:39.127Z,2.10
2023-02-26T14:01:30.416Z,2.20
2023-02-26T14:04:28.094Z,2.40
2023-02-26T14:07:17.624Z,2.50
2023-02-26T14:10:15.808Z,2.60
2023-02-26T14:13:18.191Z,2.50
2023-02-26T14:16:13.734Z,2.50
2023-02-26T14:19:07.064Z,2.40
2023-02-26T14:21:59.071Z,2.40
2023-02-26T14:24:53.392Z,2.30
2023-02-26T14:27:42.611Z,2.30
2023-02-26T14:30:34.045Z,2.30
2023-02-26T14:33:30.753Z,2.20
2023-02-26T14:36:21.412Z,2.20
2023-02-26T14:39:23.764Z,2.20
2023-02-26T14:42:15.754Z,2.20
2023-02-26T14:45:11.675Z,2.30
2023-02-26T14:48:00.880Z,2.40
2023-02-26T14:51:07.673Z,2.50
2023-02-26T14:54:12.252Z,2.50
2023-02-26T14:57:05.154Z,2.50
2023-02-26T15:00:12.900Z,2.50
2023-02-26T15:03:33.390Z,2.50
2023-02-26T15:06:51.878Z,2.40
2023-02-26T15:09:52.597Z,2.40
2023-02-26T15:12:55.663Z,2.40
2023-02-26T15:15:53.549Z,2.30
2023-02-26T15:19:02.909Z,2.30
2023-02-26T15:22:02.716Z,2.20
2023-02-26T15:24:50.283Z,2.20
2023-02-26T15:27:38.138Z,2.10
2023-02-26T15:30:27.821Z,2.10
2023-02-26T15:33:18.103Z,2.00
2023-02-26T15:36:10.107Z,2.00
2023-02-26T15:38:59.482Z,2.00
2023-02-26T15:41:50.475Z,2.00
2023-02-26T15:44:42.744Z,2.00
2023-02-26T15:47:38.026Z,2.00
2023-02-26T15:50:29.663Z,2.00
2023-02-26T15:53:22.747Z,2.00
2023-02-26T15:56:13.094Z,2.00
2023-02-26T15:59:03.176Z,2.00
2023-02-26T16:01:51.281Z,2.10
2023-02-26T16:04:40.654Z,2.10
2023-02-26T16:07:28.449Z,2.00
2023-02-26T16:10:28.897Z,2.00
2023-02-26T16:13:18.816Z,2.00
2023-02-26T16:16:10.272Z,2.00
2023-02-26T16:18:58.843Z,2.00
2023-02-26T16:21:49.987Z,2.00
2023-02-26T16:24:37.626Z,2.00
2023-02-26T16:27:28.305Z,1.90
2023-02-26T16:30:20.214Z,1.90
2023-02-26T16:33:13.655Z,1.90
2023-02-26T16:36:06.636Z,1.90
2023-02-26T16:39:14.684Z,1.80
2023-02-26T16:42:15.833Z,1.70
2023-02-26T16:45:16.877Z,1.60
2023-02-26T16:48:09.002Z,1.60
2023-02-26T16:51:00.901Z,1.50
2023-02-26T16:53:51.060Z,1.40
2023-02-26T16:56:43.167Z,1.30
2023-02-26T16:59:32.990Z,1.30
2023-02-26T17:02:23.229Z,1.30
2023-02-26T17:05:24.826Z,1.20
2023-02-26T17:08:19.048Z,1.10
2023-02-26T17:11:10.297Z,1.10
2023-02-26T17:14:22.577Z,1.00
2023-02-26T17:17:10.206Z,1.00
2023-02-26T17:19:57.659Z,1.00
2023-02-26T17:22:46.140Z,1.00
2023-02-26T17:25:39.790Z,1.00
2023-02-26T17:28:29.480Z,1.10
2023-02-26T17:31:18.450Z,1.10
2023-02-26T17:34:10.908Z,1.10
2023-02-26T17:36:59.753Z,1.10
2023-02-26T17:39:47.659Z,1.00
2023-02-26T17:42:36.928Z,1.00
2023-02-26T17:45:24.518Z,0.90
2023-02-26T17:48:14.696Z,0.90
2023-02-26T17:51:02.182Z,0.90
2023-02-26T17:53:50.627Z,0.90
2023-02-26T17:56:38.766Z,0.90
2023-02-26T17:59:26.991Z,1.00
2023-02-26T18:02:19.471Z,1.00
2023-02-26T18:05:09.596Z,1.10
2023-02-26T18:07:57.186Z,1.10
2023-02-26T18:10:45.431Z,1.10
2023-02-26T18:13:33.275Z,1.20
2023-02-26T18:16:26.596Z,1.20
2023-02-26T18:19:15.306Z,1.10
2023-02-26T18:22:04.049Z,1.10
2023-02-26T18:24:51.784Z,1.10
2023-02-26T18:27:39.594Z,1.10
2023-02-26T18:30:29.371Z,1.00
2023-02-26T18:33:17.378Z,1.00
2023-02-26T18:36:06.133Z,0.90
2023-02-26T18:38:54.853Z,0.90
2023-02-26T18:41:42.680Z,0.90
2023-02-26T18:44:30.167Z,0.90
2023-02-26T18:47:18.832Z,0.90
2023-02-26T18:50:07.969Z,0.90
2023-02-26T18:52:55.849Z,0.90
2023-02-26T18:55:45.354Z,0.90
2023-02-26T18:58:33.151Z,0.90
2023-02-26T19:01:20.561Z,0.90
2023-02-26T19:04:08.553Z,0.90
2023-02-26T19:06:56.241Z,0.90
2023-02-26T19:09:43.963Z,0.90
2023-02-26T19:12:33.069Z,1.00
2023-02-26T19:15:20.576Z,1.00
2023-02-26T19:18:08.471Z,1.00
2023-02-26T19:20:56.037Z,1.00
2023-02-26T19:23:43.621Z,1.00
2023-02-26T19:26:31.073Z,1.00
2023-02-26T19:29:21.567Z,0.90
2023-02-26T19:32:09.990Z,0.90
2023-02-26T19:34:57.549Z,0.80
2023-02-26T19:37:46.405Z,0.80
2023-02-26T19:40:34.546Z,0.70
2023-02-26T19:43:23.388Z,0.70
2023-02-26T19:46:13.430Z,0.70
2023-02-26T19:49:01.212Z,0.60
2023-02-26T19:51:48.871Z,0.70
2023-02-26T19:54:36.398Z,0.60
2023-02-26T19:57:23.976Z,0.60
2023-02-26T20:00:14.464Z,0.50
2023-02-26T20:03:03.468Z,0.50
2023-02-26T20:05:51.322Z,0.40
2023-02-26T20:08:38.922Z,0.30
2023-02-26T20:11:27.365Z,0.30
2023-02-26T20:14:14.903Z,0.30
2023-02-26T20:17:02.459Z,0.40
2023-02-26T20:19:51.304Z,0.40
2023-02-26T20:22:38.994Z,0.40
2023-02-26T20:25:26.438Z,0.40
2023-02-26T20:28:14.135Z,0.40
2023-02-26T20:31:02.106Z,0.50
2023-02-26T20:33:49.623Z,0.50
2023-02-26T20:36:38.664Z,0.50
2023-02-26T20:39:26.414Z,0.60
2023-02-26T20:42:14.105Z,0.60
2023-02-26T20:45:01.572Z,0.60
2023-02-26T20:47:49.120Z,0.70
2023-02-26T20:50:37.362Z,0.70
2023-02-26T20:53:26.309Z,0.70
2023-02-26T20:56:14.490Z,0.70
2023-02-26T20:59:01.974Z,0.70
2023-02-26T21:01:51.532Z,0.70
2023-02-26T21:04:39.018Z,0.70
2023-02-26T21:07:26.683Z,0.70
2023-02-26T21:10:18.868Z,0.70
2023-02-26T21:13:06.203Z,0.80
2023-02-26T21:15:53.538Z,0.80
2023-02-26T21:18:40.950Z,0.80
2023-02-26T21:21:29.038Z,0.80
2023-02-26T21:24:16.666Z,0.80
2023-02-26T21:27:05.723Z,0.80
2023-02-26T21:29:53.127Z,0.80
2023-02-26T21:32:40.753Z,0.80
2023-02-26T21:35:29.258Z,0.80
2023-02-26T21:38:18.472Z,0.80
2023-02-26T21:41:06.887Z,0.80
2023-02-26T21:43:55.760Z,0.80
2023-02-26T21:46:43.090Z,0.80
2023-02-26T21:49:32.043Z,0.80
2023-02-26T21:52:19.644Z,0.70
2023-02-26T21:55:08.098Z,0.70
2023-02-26T21:57:55.574Z,0.70
2023-02-26T22:00:44.521Z,0.80
2023-02-26T22:03:31.936Z,0.80
2023-02-26T22:06:19.898Z,0.80
2023-02-26T22:09:07.245Z,0.80
2023-02-26T22:11:54.564Z,0.80
2023-02-26T22:14:42.410Z,0.80
2023-02-26T22:17:31.643Z,0.80
2023-02-26T22:20:18.953Z,0.80
2023-02-26T22:23:06.677Z,0.80
2023-02-26T22:25:54.429Z,0.80
2023-02-26T22:28:41.960Z,0.80
2023-02-26T22:31:29.761Z,0.80
2023-02-26T22:34:18.812Z,0.80
2023-02-26T22:37:06.549Z,0.80
2023-02-26T22:39:53.937Z,0.80
2023-02-26T22:42:42.005Z,0.70
2023-02-26T22:45:29.557Z,0.70
2023-02-26T22:48:17.739Z,0.70
2023-02-26T22:51:07.004Z,0.70
2023-02-26T22:53:54.642Z,0.70
2023-02-26T22:56:42.074Z,0.70
2023-02-26T22:59:29.487Z,0.70
2023-02-26T23:02:17.006Z,0.80
2023-02-26T23:05:04.585Z,0.80
2023-02-26T23:07:54.154Z,0.80
2023-02-26T23:10:41.481Z,0.80
2023-02-26T23:13:34.053Z,0.80
2023-02-26T23:16:21.917Z,0.80
2023-02-26T23:19:10.101Z,0.80
2023-02-26T23:21:57.682Z,0.80
2023-02-26T23:24:47.452Z,0.80
2023-02-26T23:27:35.107Z,0.80
2023-02-26T23:30:22.959Z,0.80
2023-02-26T23:33:10.596Z,0.90
2023-02-26T23:35:57.940Z,0.90
2023-02-26T23:38:45.400Z,0.90
2023-02-26T23:41:34.160Z,0.90
2023-02-26T23:44:21.541Z,0.90
2023-02-26T23:47:09.041Z,0.80
2023-02-26T23:49:56.424Z,0.80
2023-02-26T23:52:43.811Z,0.80
2023-02-26T23:55:31.409Z,0.80
2023-02-26T23:58:20.317Z,0.80
